sensor_id;sensor_type;location;lat;lon;timestamp;pressure;altitude;pressure_sealevel;temperature;humidity
8705;BME280;4389;41.932;25.904;2023-08-30T00:02:04;-16720.91;;;24.55;66.15
8705;BME280;4389;41.932;25.904;2023-08-30T00:04:31;-16722.34;;;24.61;66.13
8705;BME280;4389;41.932;25.904;2023-08-30T00:06:58;-16721.28;;;24.57;66.33
8705;BME280;4389;41.932;25.904;2023-08-30T00:09:24;-16721.28;;;24.57;66.32
8705;BME280;4389;41.932;25.904;2023-08-30T00:11:51;-16719.97;;;24.52;66.16
8705;BME280;4389;41.932;25.904;2023-08-30T00:14:18;-16716.53;;;24.39;66.85
8705;BME280;4389;41.932;25.904;2023-08-30T00:16:46;-16715.63;;;24.35;67.00
8705;BME280;4389;41.932;25.904;2023-08-30T00:19:13;-16714.69;;;24.32;67.22
8705;BME280;4389;41.932;25.904;2023-08-30T00:21:40;-16714.44;;;24.31;67.14
8705;BME280;4389;41.932;25.904;2023-08-30T00:24:08;-16714.69;;;24.32;67.13
8705;BME280;4389;41.932;25.904;2023-08-30T00:26:35;-16713.38;;;24.27;67.16
8705;BME280;4389;41.932;25.904;2023-08-30T00:29:02;-16711.53;;;24.20;67.39
8705;BME280;4389;41.932;25.904;2023-08-30T00:31:29;-16712.59;;;24.24;67.47
8705;BME280;4389;41.932;25.904;2023-08-30T00:33:57;-16710.06;;;24.15;67.73
8705;BME280;4389;41.932;25.904;2023-08-30T00:36:24;-16708.75;;;24.10;67.94
8705;BME280;4389;41.932;25.904;2023-08-30T00:38:51;-16708.22;;;24.08;67.91
8705;BME280;4389;41.932;25.904;2023-08-30T00:41:18;-16710.88;;;24.18;67.53
8705;BME280;4389;41.932;25.904;2023-08-30T00:43:44;-16710.34;;;24.16;67.71
8705;BME280;4389;41.932;25.904;2023-08-30T00:46:11;-16710.47;;;24.16;67.47
8705;BME280;4389;41.932;25.904;2023-08-30T00:48:39;-16709.69;;;24.13;67.81
8705;BME280;4389;41.932;25.904;2023-08-30T00:51:08;-16709.81;;;24.14;67.65
8705;BME280;4389;41.932;25.904;2023-08-30T00:53:36;-16707.03;;;24.03;68.21
8705;BME280;4389;41.932;25.904;2023-08-30T00:56:04;-16704.66;;;23.94;68.69
8705;BME280;4389;41.932;25.904;2023-08-30T00:58:31;-16705.19;;;23.96;68.29
8705;BME280;4389;41.932;25.904;2023-08-30T01:00:58;-16702.56;;;23.86;68.80
8705;BME280;4389;41.932;25.904;2023-08-30T01:03:26;-16701.75;;;23.83;69.23
8705;BME280;4389;41.932;25.904;2023-08-30T01:05:52;-16700.84;;;23.80;69.22
8705;BME280;4389;41.932;25.904;2023-08-30T01:08:21;-16700.19;;;23.77;69.57
8705;BME280;4389;41.932;25.904;2023-08-30T01:10:53;-16700.72;;;23.79;69.35
8705;BME280;4389;41.932;25.904;2023-08-30T01:13:25;-16702.28;;;23.85;69.07
8705;BME280;4389;41.932;25.904;2023-08-30T01:15:54;-16704.66;;;23.94;68.92
8705;BME280;4389;41.932;25.904;2023-08-30T01:18:22;-16703.09;;;23.88;68.80
8705;BME280;4389;41.932;25.904;2023-08-30T01:20:54;-16703.63;;;23.90;68.98
8705;BME280;4389;41.932;25.904;2023-08-30T01:23:29;-16704.41;;;23.93;68.68
8705;BME280;4389;41.932;25.904;2023-08-30T01:26:05;-16702.69;;;23.87;69.33
8705;BME280;4389;41.932;25.904;2023-08-30T01:28:36;-16700.56;;;23.79;69.43
8705;BME280;4389;41.932;25.904;2023-08-30T01:31:06;-16701.09;;;23.81;69.40
8705;BME280;4389;41.932;25.904;2023-08-30T01:33:34;-16698.59;;;23.71;69.86
8705;BME280;4389;41.932;25.904;2023-08-30T01:36:03;-16697.41;;;23.67;70.18
8705;BME280;4389;41.932;25.904;2023-08-30T01:38:31;-16697.28;;;23.66;70.31
8705;BME280;4389;41.932;25.904;2023-08-30T01:40:59;-16697.81;;;23.68;70.35
8705;BME280;4389;41.932;25.904;2023-08-30T01:43:27;-16699.13;;;23.73;70.06
8705;BME280;4389;41.932;25.904;2023-08-30T01:45:57;-16696.47;;;23.63;70.52
8705;BME280;4389;41.932;25.904;2023-08-30T01:48:26;-16696.47;;;23.63;70.41
8705;BME280;4389;41.932;25.904;2023-08-30T01:50:55;-16693.84;;;23.53;70.62
8705;BME280;4389;41.932;25.904;2023-08-30T01:53:25;-16694.38;;;23.55;71.13
8705;BME280;4389;41.932;25.904;2023-08-30T01:55:51;-16695.03;;;23.58;71.09
8705;BME280;4389;41.932;25.904;2023-08-30T01:58:19;-16693.06;;;23.50;71.43
8705;BME280;4389;41.932;25.904;2023-08-30T02:00:46;-16694.38;;;23.55;71.31
8705;BME280;4389;41.932;25.904;2023-08-30T02:03:14;-16693.84;;;23.53;71.35
8705;BME280;4389;41.932;25.904;2023-08-30T02:05:50;-16692.00;;;23.46;71.77
8705;BME280;4389;41.932;25.904;2023-08-30T02:08:22;-16692.66;;;23.49;71.81
8705;BME280;4389;41.932;25.904;2023-08-30T02:10:55;-16691.47;;;23.44;71.91
8705;BME280;4389;41.932;25.904;2023-08-30T02:13:25;-16693.44;;;23.52;71.90
8705;BME280;4389;41.932;25.904;2023-08-30T02:15:55;-16692.00;;;23.46;72.27
8705;BME280;4389;41.932;25.904;2023-08-30T02:18:23;-16693.84;;;23.53;71.88
8705;BME280;4389;41.932;25.904;2023-08-30T02:20:51;-16691.47;;;23.44;72.41
8705;BME280;4389;41.932;25.904;2023-08-30T02:23:18;-16692.25;;;23.47;72.18
8705;BME280;4389;41.932;25.904;2023-08-30T02:25:46;-16692.00;;;23.46;72.41
8705;BME280;4389;41.932;25.904;2023-08-30T02:28:13;-16690.16;;;23.39;72.50
8705;BME280;4389;41.932;25.904;2023-08-30T02:30:39;-16689.09;;;23.35;72.61
8705;BME280;4389;41.932;25.904;2023-08-30T02:33:06;-16690.41;;;23.40;72.48
8705;BME280;4389;41.932;25.904;2023-08-30T02:35:34;-16690.69;;;23.41;72.42
8705;BME280;4389;41.932;25.904;2023-08-30T02:38:01;-16690.28;;;23.40;72.21
8705;BME280;4389;41.932;25.904;2023-08-30T02:40:30;-16691.19;;;23.43;72.30
8705;BME280;4389;41.932;25.904;2023-08-30T02:42:57;-16690.94;;;23.42;72.07
8705;BME280;4389;41.932;25.904;2023-08-30T02:45:23;-16690.41;;;23.40;72.34
8705;BME280;4389;41.932;25.904;2023-08-30T02:47:50;-16689.63;;;23.37;72.54
8705;BME280;4389;41.932;25.904;2023-08-30T02:50:17;-16688.56;;;23.33;72.65
8705;BME280;4389;41.932;25.904;2023-08-30T02:52:45;-16686.84;;;23.27;72.57
8705;BME280;4389;41.932;25.904;2023-08-30T02:55:12;-16687.25;;;23.28;72.75
8705;BME280;4389;41.932;25.904;2023-08-30T02:57:39;-16688.81;;;23.34;72.65
8705;BME280;4389;41.932;25.904;2023-08-30T03:00:07;-16688.03;;;23.31;72.48
8705;BME280;4389;41.932;25.904;2023-08-30T03:02:34;-16685.25;;;23.21;73.19
8705;BME280;4389;41.932;25.904;2023-08-30T03:05:01;-16686.97;;;23.27;72.97
8705;BME280;4389;41.932;25.904;2023-08-30T03:07:29;-16685.66;;;23.22;73.28
8705;BME280;4389;41.932;25.904;2023-08-30T03:09:58;-16684.59;;;23.18;73.37
8705;BME280;4389;41.932;25.904;2023-08-30T03:12:25;-16683.66;;;23.15;73.69
8705;BME280;4389;41.932;25.904;2023-08-30T03:14:52;-16682.75;;;23.11;73.84
8705;BME280;4389;41.932;25.904;2023-08-30T03:17:18;-16682.47;;;23.10;74.09
8705;BME280;4389;41.932;25.904;2023-08-30T03:19:45;-16681.44;;;23.06;74.16
8705;BME280;4389;41.932;25.904;2023-08-30T03:22:12;-16679.84;;;23.00;74.88
8705;BME280;4389;41.932;25.904;2023-08-30T03:24:39;-16678.78;;;22.96;75.07
8705;BME280;4389;41.932;25.904;2023-08-30T03:27:07;-16678.13;;;22.94;75.37
8705;BME280;4389;41.932;25.904;2023-08-30T03:29:34;-16677.47;;;22.91;75.46
8705;BME280;4389;41.932;25.904;2023-08-30T03:32:00;-16679.84;;;23.00;75.35
8705;BME280;4389;41.932;25.904;2023-08-30T03:34:27;-16678.53;;;22.95;75.33
8705;BME280;4389;41.932;25.904;2023-08-30T03:36:54;-16680.78;;;23.04;74.83
8705;BME280;4389;41.932;25.904;2023-08-30T03:39:21;-16678.78;;;22.96;75.04
8705;BME280;4389;41.932;25.904;2023-08-30T03:41:49;-16680.63;;;23.03;74.61
8705;BME280;4389;41.932;25.904;2023-08-30T03:44:17;-16681.16;;;23.05;74.38
8705;BME280;4389;41.932;25.904;2023-08-30T03:46:49;-16679.31;;;22.98;74.67
8705;BME280;4389;41.932;25.904;2023-08-30T03:49:17;-16677.59;;;22.92;74.83
8705;BME280;4389;41.932;25.904;2023-08-30T03:51:44;-16679.84;;;23.00;74.21
8705;BME280;4389;41.932;25.904;2023-08-30T03:54:10;-16680.91;;;23.04;74.31
8705;BME280;4389;41.932;25.904;2023-08-30T03:56:41;-16683.28;;;23.13;74.05
8705;BME280;4389;41.932;25.904;2023-08-30T03:59:08;-16684.34;;;23.17;73.76
8705;BME280;4389;41.932;25.904;2023-08-30T04:01:36;-16690.94;;;23.42;72.75
8705;BME280;4389;41.932;25.904;2023-08-30T04:04:04;-16695.28;;;23.59;72.49
8705;BME280;4389;41.932;25.904;2023-08-30T04:06:31;-16700.84;;;23.80;71.55
8705;BME280;4389;41.932;25.904;2023-08-30T04:08:58;-16701.63;;;23.83;71.57
8705;BME280;4389;41.932;25.904;2023-08-30T04:11:25;-16705.06;;;23.96;71.10
8705;BME280;4389;41.932;25.904;2023-08-30T04:13:52;-16709.41;;;24.12;70.47
8705;BME280;4389;41.932;25.904;2023-08-30T04:16:18;-16714.16;;;24.30;69.97
8705;BME280;4389;41.932;25.904;2023-08-30T04:18:47;-16715.75;;;24.36;69.50
8705;BME280;4389;41.932;25.904;2023-08-30T04:21:13;-16723.66;;;24.66;68.55
8705;BME280;4389;41.932;25.904;2023-08-30T04:23:40;-16728.69;;;24.85;67.59
8705;BME280;4389;41.932;25.904;2023-08-30T04:26:07;-16735.94;;;25.12;66.47
8705;BME280;4389;41.932;25.904;2023-08-30T04:28:34;-16744.78;;;25.46;65.11
8705;BME280;4389;41.932;25.904;2023-08-30T04:31:01;-16753.22;;;25.78;63.96
8705;BME280;4389;41.932;25.904;2023-08-30T04:33:27;-16757.28;;;25.93;63.73
8705;BME280;4389;41.932;25.904;2023-08-30T04:35:55;-16760.59;;;26.06;62.91
8705;BME280;4389;41.932;25.904;2023-08-30T04:38:22;-16760.06;;;26.04;62.91
8705;BME280;4389;41.932;25.904;2023-08-30T04:40:49;-16754.13;;;25.81;64.58
8705;BME280;4389;41.932;25.904;2023-08-30T04:43:16;-16749.00;;;25.62;65.20
8705;BME280;4389;41.932;25.904;2023-08-30T04:45:43;-16741.06;;;25.32;67.99
8705;BME280;4389;41.932;25.904;2023-08-30T04:48:10;-16732.13;;;24.98;70.01
8705;BME280;4389;41.932;25.904;2023-08-30T04:50:37;-16730.53;;;24.92;70.09
8705;BME280;4389;41.932;25.904;2023-08-30T04:53:05;-16732.38;;;24.99;68.24
8705;BME280;4389;41.932;25.904;2023-08-30T04:55:32;-16740.41;;;25.29;67.07
8705;BME280;4389;41.932;25.904;2023-08-30T04:57:58;-16741.88;;;25.35;67.19
8705;BME280;4389;41.932;25.904;2023-08-30T05:00:25;-16744.50;;;25.45;68.08
8705;BME280;4389;41.932;25.904;2023-08-30T05:02:52;-16738.84;;;25.23;69.31
8705;BME280;4389;41.932;25.904;2023-08-30T05:05:19;-16734.22;;;25.06;70.54
8705;BME280;4389;41.932;25.904;2023-08-30T05:07:46;-16733.69;;;25.04;70.66
8705;BME280;4389;41.932;25.904;2023-08-30T05:10:14;-16729.59;;;24.88;71.53
8705;BME280;4389;41.932;25.904;2023-08-30T05:12:41;-16731.59;;;24.96;71.19
8705;BME280;4389;41.932;25.904;2023-08-30T05:15:13;-16730.78;;;24.93;70.19
8705;BME280;4389;41.932;25.904;2023-08-30T05:17:40;-16731.19;;;24.94;70.67
8705;BME280;4389;41.932;25.904;2023-08-30T05:20:08;-16734.75;;;25.08;70.31
8705;BME280;4389;41.932;25.904;2023-08-30T05:22:35;-16737.13;;;25.17;69.64
8705;BME280;4389;41.932;25.904;2023-08-30T05:25:02;-16740.56;;;25.30;69.66
8705;BME280;4389;41.932;25.904;2023-08-30T05:27:30;-16741.59;;;25.34;69.47
8705;BME280;4389;41.932;25.904;2023-08-30T05:29:57;-16740.03;;;25.28;69.18
8705;BME280;4389;41.932;25.904;2023-08-30T05:32:23;-16743.97;;;25.43;68.80
8705;BME280;4389;41.932;25.904;2023-08-30T05:34:50;-16748.19;;;25.59;68.86
8705;BME280;4389;41.932;25.904;2023-08-30T05:37:17;-16755.84;;;25.88;68.16
8705;BME280;4389;41.932;25.904;2023-08-30T05:39:44;-16757.44;;;25.94;67.51
8705;BME280;4389;41.932;25.904;2023-08-30T05:42:10;-16757.94;;;25.96;67.41
8705;BME280;4389;41.932;25.904;2023-08-30T05:44:39;-16757.69;;;25.95;67.50
8705;BME280;4389;41.932;25.904;2023-08-30T05:47:06;-16765.59;;;26.25;66.99
8705;BME280;4389;41.932;25.904;2023-08-30T05:49:33;-16768.22;;;26.35;66.87
8705;BME280;4389;41.932;25.904;2023-08-30T05:52:00;-16772.03;;;26.49;66.62
8705;BME280;4389;41.932;25.904;2023-08-30T05:54:27;-16776.41;;;26.66;67.89
8705;BME280;4389;41.932;25.904;2023-08-30T05:56:56;-16782.47;;;26.89;66.86
8705;BME280;4389;41.932;25.904;2023-08-30T05:59:23;-16783.91;;;26.94;67.80
8705;BME280;4389;41.932;25.904;2023-08-30T06:01:51;-16787.97;;;27.10;68.87
8705;BME280;4389;41.932;25.904;2023-08-30T06:04:18;-16790.38;;;27.19;69.72
8705;BME280;4389;41.932;25.904;2023-08-30T06:06:45;-16791.53;;;27.23;70.63
8705;BME280;4389;41.932;25.904;2023-08-30T06:09:12;-16796.16;;;27.41;69.50
8705;BME280;4389;41.932;25.904;2023-08-30T06:11:39;-16790.63;;;27.20;70.54
8705;BME280;4389;41.932;25.904;2023-08-30T06:14:06;-16785.63;;;27.01;71.43
8705;BME280;4389;41.932;25.904;2023-08-30T06:16:34;-16785.09;;;26.99;71.73
8705;BME280;4389;41.932;25.904;2023-08-30T06:19:05;-16786.41;;;27.04;72.43
8705;BME280;4389;41.932;25.904;2023-08-30T06:21:32;-16789.03;;;27.14;72.76
8705;BME280;4389;41.932;25.904;2023-08-30T06:23:59;-16793.78;;;27.32;71.17
8705;BME280;4389;41.932;25.904;2023-08-30T06:26:25;-16797.47;;;27.46;71.22
8705;BME280;4389;41.932;25.904;2023-08-30T06:28:52;-16797.72;;;27.47;71.33
8705;BME280;4389;41.932;25.904;2023-08-30T06:31:19;-16800.75;;;27.58;70.16
8705;BME280;4389;41.932;25.904;2023-08-30T06:33:46;-16799.31;;;27.53;69.95
8705;BME280;4389;41.932;25.904;2023-08-30T06:36:15;-16799.44;;;27.53;70.67
8705;BME280;4389;41.932;25.904;2023-08-30T06:38:42;-16803.53;;;27.69;70.14
8705;BME280;4389;41.932;25.904;2023-08-30T06:41:09;-16806.28;;;27.79;70.15
8705;BME280;4389;41.932;25.904;2023-08-30T06:43:37;-16812.75;;;28.04;68.94
8705;BME280;4389;41.932;25.904;2023-08-30T06:46:03;-16816.69;;;28.19;68.12
8705;BME280;4389;41.932;25.904;2023-08-30T06:48:30;-16814.59;;;28.11;67.73
8705;BME280;4389;41.932;25.904;2023-08-30T06:50:57;-16813.66;;;28.07;68.31
8705;BME280;4389;41.932;25.904;2023-08-30T06:53:26;-16814.31;;;28.10;67.46
8705;BME280;4389;41.932;25.904;2023-08-30T06:55:57;-16808.00;;;27.86;68.30
8705;BME280;4389;41.932;25.904;2023-08-30T06:58:24;-16806.94;;;27.82;68.12
8705;BME280;4389;41.932;25.904;2023-08-30T07:00:51;-16807.75;;;27.85;68.16
8705;BME280;4389;41.932;25.904;2023-08-30T07:03:18;-16809.84;;;27.93;67.53
8705;BME280;4389;41.932;25.904;2023-08-30T07:05:45;-16812.34;;;28.02;66.91
8705;BME280;4389;41.932;25.904;2023-08-30T07:08:13;-16815.63;;;28.15;66.50
8705;BME280;4389;41.932;25.904;2023-08-30T07:10:42;-16812.59;;;28.03;67.02
8705;BME280;4389;41.932;25.904;2023-08-30T07:13:09;-16814.84;;;28.12;66.66
8705;BME280;4389;41.932;25.904;2023-08-30T07:15:38;-16821.81;;;28.38;66.58
8705;BME280;4389;41.932;25.904;2023-08-30T07:18:05;-16826.69;;;28.57;64.77
8705;BME280;4389;41.932;25.904;2023-08-30T07:20:31;-16829.06;;;28.66;64.39
8705;BME280;4389;41.932;25.904;2023-08-30T07:22:59;-16828.66;;;28.64;64.76
8705;BME280;4389;41.932;25.904;2023-08-30T07:25:25;-16836.16;;;28.93;62.98
8705;BME280;4389;41.932;25.904;2023-08-30T07:27:54;-16838.25;;;29.01;63.04
8705;BME280;4389;41.932;25.904;2023-08-30T07:30:21;-16840.38;;;29.09;63.21
8705;BME280;4389;41.932;25.904;2023-08-30T07:32:47;-16842.72;;;29.18;60.87
8705;BME280;4389;41.932;25.904;2023-08-30T07:35:14;-16841.69;;;29.14;60.92
8705;BME280;4389;41.932;25.904;2023-08-30T07:37:41;-16843.00;;;29.19;61.47
8705;BME280;4389;41.932;25.904;2023-08-30T07:40:09;-16846.16;;;29.31;61.21
8705;BME280;4389;41.932;25.904;2023-08-30T07:42:35;-16850.63;;;29.48;60.75
8705;BME280;4389;41.932;25.904;2023-08-30T07:45:04;-16850.34;;;29.47;60.90
8705;BME280;4389;41.932;25.904;2023-08-30T07:47:31;-16850.34;;;29.47;61.35
8705;BME280;4389;41.932;25.904;2023-08-30T07:49:58;-16845.34;;;29.28;61.95
8705;BME280;4389;41.932;25.904;2023-08-30T07:52:25;-16844.56;;;29.25;62.73
8705;BME280;4389;41.932;25.904;2023-08-30T07:54:51;-16847.59;;;29.36;62.68
8705;BME280;4389;41.932;25.904;2023-08-30T07:57:18;-16843.13;;;29.19;61.64
8705;BME280;4389;41.932;25.904;2023-08-30T07:59:45;-16849.16;;;29.42;62.27
8705;BME280;4389;41.932;25.904;2023-08-30T08:02:13;-16854.31;;;29.62;59.98
8705;BME280;4389;41.932;25.904;2023-08-30T08:04:40;-16851.41;;;29.51;60.03
8705;BME280;4389;41.932;25.904;2023-08-30T08:07:07;-16856.94;;;29.72;60.53
8705;BME280;4389;41.932;25.904;2023-08-30T08:09:33;-16864.53;;;30.01;59.58
8705;BME280;4389;41.932;25.904;2023-08-30T08:12:00;-16872.69;;;30.32;57.03
8705;BME280;4389;41.932;25.904;2023-08-30T08:14:29;-16875.31;;;30.41;55.97
8705;BME280;4389;41.932;25.904;2023-08-30T08:16:55;-16874.53;;;30.38;56.32
8705;BME280;4389;41.932;25.904;2023-08-30T08:19:26;-16879.00;;;30.55;55.40
8705;BME280;4389;41.932;25.904;2023-08-30T08:21:56;-16885.03;;;30.78;53.86
8705;BME280;4389;41.932;25.904;2023-08-30T08:24:22;-16884.50;;;30.76;53.68
8705;BME280;4389;41.932;25.904;2023-08-30T08:26:49;-16882.69;;;30.69;54.37
8705;BME280;4389;41.932;25.904;2023-08-30T08:29:16;-16885.69;;;30.81;53.45
8705;BME280;4389;41.932;25.904;2023-08-30T08:31:43;-16883.59;;;30.73;54.28
8705;BME280;4389;41.932;25.904;2023-08-30T08:34:11;-16889.38;;;30.95;53.66
8705;BME280;4389;41.932;25.904;2023-08-30T08:36:42;-16890.56;;;30.99;53.19
8705;BME280;4389;41.932;25.904;2023-08-30T08:39:09;-16893.44;;;31.10;52.12
8705;BME280;4389;41.932;25.904;2023-08-30T08:41:40;-16893.97;;;31.12;52.46
8705;BME280;4389;41.932;25.904;2023-08-30T08:44:08;-16895.28;;;31.17;52.17
8705;BME280;4389;41.932;25.904;2023-08-30T08:46:35;-16899.47;;;31.33;51.46
8705;BME280;4389;41.932;25.904;2023-08-30T08:49:08;-16903.56;;;31.49;51.25
8705;BME280;4389;41.932;25.904;2023-08-30T08:51:36;-16905.38;;;31.56;51.05
8705;BME280;4389;41.932;25.904;2023-08-30T08:54:05;-16909.19;;;31.70;50.69
8705;BME280;4389;41.932;25.904;2023-08-30T08:56:34;-16911.44;;;31.79;50.15
8705;BME280;4389;41.932;25.904;2023-08-30T08:59:02;-16910.78;;;31.76;50.18
8705;BME280;4389;41.932;25.904;2023-08-30T09:01:29;-16907.34;;;31.63;49.65
8705;BME280;4389;41.932;25.904;2023-08-30T09:03:59;-16910.50;;;31.75;49.77
8705;BME280;4389;41.932;25.904;2023-08-30T09:06:26;-16912.09;;;31.81;48.60
8705;BME280;4389;41.932;25.904;2023-08-30T09:08:55;-16909.06;;;31.70;49.41
8705;BME280;4389;41.932;25.904;2023-08-30T09:11:23;-16912.34;;;31.82;48.88
8705;BME280;4389;41.932;25.904;2023-08-30T09:13:50;-16913.41;;;31.86;48.70
8705;BME280;4389;41.932;25.904;2023-08-30T09:16:16;-16914.84;;;31.92;48.95
8705;BME280;4389;41.932;25.904;2023-08-30T09:18:43;-16921.25;;;32.16;46.75
8705;BME280;4389;41.932;25.904;2023-08-30T09:21:10;-16923.88;;;32.26;45.96
8705;BME280;4389;41.932;25.904;2023-08-30T09:23:38;-16918.63;;;32.06;46.62
8705;BME280;4389;41.932;25.904;2023-08-30T09:26:05;-16920.59;;;32.14;46.44
8705;BME280;4389;41.932;25.904;2023-08-30T09:28:41;-16927.03;;;32.38;45.10
8705;BME280;4389;41.932;25.904;2023-08-30T09:31:17;-16929.25;;;32.47;44.75
8705;BME280;4389;41.932;25.904;2023-08-30T09:33:45;-16935.16;;;32.69;43.82
8705;BME280;4389;41.932;25.904;2023-08-30T09:36:13;-16937.41;;;32.78;43.83
8705;BME280;4389;41.932;25.904;2023-08-30T09:38:40;-16942.63;;;32.98;43.24
8705;BME280;4389;41.932;25.904;2023-08-30T09:41:07;-16940.16;;;32.88;42.90
8705;BME280;4389;41.932;25.904;2023-08-30T09:43:41;-16937.00;;;32.76;43.90
8705;BME280;4389;41.932;25.904;2023-08-30T09:46:08;-16934.63;;;32.67;43.28
8705;BME280;4389;41.932;25.904;2023-08-30T09:48:37;-16931.22;;;32.54;44.65
8705;BME280;4389;41.932;25.904;2023-08-30T09:51:07;-16931.22;;;32.54;44.08
8705;BME280;4389;41.932;25.904;2023-08-30T09:53:40;-16929.66;;;32.48;44.58
8705;BME280;4389;41.932;25.904;2023-08-30T09:56:08;-16940.16;;;32.88;43.57
8705;BME280;4389;41.932;25.904;2023-08-30T09:58:38;-16943.28;;;33.00;42.96
8705;BME280;4389;41.932;25.904;2023-08-30T10:01:06;-16943.28;;;33.00;42.58
8705;BME280;4389;41.932;25.904;2023-08-30T10:03:34;-16940.00;;;32.88;43.41
8705;BME280;4389;41.932;25.904;2023-08-30T10:06:01;-16939.09;;;32.84;43.07
8705;BME280;4389;41.932;25.904;2023-08-30T10:08:33;-16937.78;;;32.79;43.06
8705;BME280;4389;41.932;25.904;2023-08-30T10:11:02;-16943.03;;;32.99;43.43
8705;BME280;4389;41.932;25.904;2023-08-30T10:13:29;-16946.97;;;33.14;42.80
8705;BME280;4389;41.932;25.904;2023-08-30T10:16:01;-16950.09;;;33.26;42.31
8705;BME280;4389;41.932;25.904;2023-08-30T10:18:32;-16948.66;;;33.21;42.05
8705;BME280;4389;41.932;25.904;2023-08-30T10:21:02;-16949.84;;;33.25;41.31
8705;BME280;4389;41.932;25.904;2023-08-30T10:23:32;-16948.13;;;33.19;40.95
8705;BME280;4389;41.932;25.904;2023-08-30T10:26:02;-16947.47;;;33.16;40.96
8705;BME280;4389;41.932;25.904;2023-08-30T10:28:31;-16951.41;;;33.31;41.41
8705;BME280;4389;41.932;25.904;2023-08-30T10:31:00;-16955.09;;;33.45;41.28
8705;BME280;4389;41.932;25.904;2023-08-30T10:33:27;-16957.44;;;33.54;41.09
8705;BME280;4389;41.932;25.904;2023-08-30T10:36:04;-16955.88;;;33.48;41.13
8705;BME280;4389;41.932;25.904;2023-08-30T10:38:32;-16956.13;;;33.49;40.80
8705;BME280;4389;41.932;25.904;2023-08-30T10:41:06;-16963.22;;;33.76;40.04
8705;BME280;4389;41.932;25.904;2023-08-30T10:43:35;-16965.84;;;33.86;38.70
8705;BME280;4389;41.932;25.904;2023-08-30T10:46:04;-16968.44;;;33.96;37.21
8705;BME280;4389;41.932;25.904;2023-08-30T10:48:39;-16973.28;;;34.15;37.18
8705;BME280;4389;41.932;25.904;2023-08-30T10:51:19;-16976.44;;;34.27;37.58
8705;BME280;4389;41.932;25.904;2023-08-30T10:53:55;-16978.53;;;34.35;38.23
8705;BME280;4389;41.932;25.904;2023-08-30T10:56:27;-16979.97;;;34.40;36.93
8705;BME280;4389;41.932;25.904;2023-08-30T10:58:55;-16977.34;;;34.30;36.54
8705;BME280;4389;41.932;25.904;2023-08-30T11:01:23;-16975.25;;;34.22;37.02
8705;BME280;4389;41.932;25.904;2023-08-30T11:03:50;-16973.03;;;34.14;38.71
8705;BME280;4389;41.932;25.904;2023-08-30T11:06:17;-16968.97;;;33.98;38.07
8705;BME280;4389;41.932;25.904;2023-08-30T11:08:44;-16968.97;;;33.98;38.69
8705;BME280;4389;41.932;25.904;2023-08-30T11:11:11;-16974.22;;;34.18;38.05
8705;BME280;4389;41.932;25.904;2023-08-30T11:13:40;-16979.59;;;34.39;37.91
8705;BME280;4389;41.932;25.904;2023-08-30T11:16:06;-16978.41;;;34.34;38.22
8705;BME280;4389;41.932;25.904;2023-08-30T11:18:38;-16983.13;;;34.52;38.91
8705;BME280;4389;41.932;25.904;2023-08-30T11:21:07;-16978.53;;;34.35;38.29
8705;BME280;4389;41.932;25.904;2023-08-30T11:23:34;-16980.75;;;34.43;38.07
8705;BME280;4389;41.932;25.904;2023-08-30T11:26:01;-16979.44;;;34.38;39.42
8705;BME280;4389;41.932;25.904;2023-08-30T11:28:30;-16980.22;;;34.41;39.31
8705;BME280;4389;41.932;25.904;2023-08-30T11:30:58;-16978.13;;;34.33;39.28
8705;BME280;4389;41.932;25.904;2023-08-30T11:33:24;-16984.56;;;34.58;39.02
8705;BME280;4389;41.932;25.904;2023-08-30T11:35:53;-16992.53;;;34.88;37.77
8705;BME280;4389;41.932;25.904;2023-08-30T11:38:20;-16988.88;;;34.74;38.02
8705;BME280;4389;41.932;25.904;2023-08-30T11:40:49;-16990.19;;;34.79;38.37
8705;BME280;4389;41.932;25.904;2023-08-30T11:43:17;-16991.50;;;34.84;37.85
8705;BME280;4389;41.932;25.904;2023-08-30T11:45:44;-16989.91;;;34.78;37.12
8705;BME280;4389;41.932;25.904;2023-08-30T11:48:11;-16986.91;;;34.67;37.86
8705;BME280;4389;41.932;25.904;2023-08-30T11:50:38;-16985.22;;;34.60;37.22
8705;BME280;4389;41.932;25.904;2023-08-30T11:53:06;-16986.91;;;34.67;37.37
8705;BME280;4389;41.932;25.904;2023-08-30T11:55:33;-16989.41;;;34.76;37.27
8705;BME280;4389;41.932;25.904;2023-08-30T11:58:01;-16984.94;;;34.59;37.46
8705;BME280;4389;41.932;25.904;2023-08-30T12:00:32;-16983.38;;;34.53;36.84
8705;BME280;4389;41.932;25.904;2023-08-30T12:02:59;-16985.22;;;34.60;36.89
8705;BME280;4389;41.932;25.904;2023-08-30T12:05:26;-16985.22;;;34.60;37.25
8705;BME280;4389;41.932;25.904;2023-08-30T12:07:53;-16988.75;;;34.74;36.88
8705;BME280;4389;41.932;25.904;2023-08-30T12:10:21;-17000.66;;;35.19;35.78
8705;BME280;4389;41.932;25.904;2023-08-30T12:12:48;-17003.53;;;35.30;35.53
8705;BME280;4389;41.932;25.904;2023-08-30T12:15:15;-17000.91;;;35.20;35.93
8705;BME280;4389;41.932;25.904;2023-08-30T12:17:42;-16996.19;;;35.02;35.98
8705;BME280;4389;41.932;25.904;2023-08-30T12:20:15;-16998.28;;;35.10;36.17
8705;BME280;4389;41.932;25.904;2023-08-30T12:22:43;-17004.31;;;35.33;35.40
8705;BME280;4389;41.932;25.904;2023-08-30T12:25:16;-17009.81;;;35.54;35.43
8705;BME280;4389;41.932;25.904;2023-08-30T12:27:45;-17010.31;;;35.56;34.96
8705;BME280;4389;41.932;25.904;2023-08-30T12:30:13;-17012.16;;;35.63;34.74
8705;BME280;4389;41.932;25.904;2023-08-30T12:32:40;-17010.84;;;35.58;35.13
8705;BME280;4389;41.932;25.904;2023-08-30T12:35:07;-17006.00;;;35.40;35.35
8705;BME280;4389;41.932;25.904;2023-08-30T12:37:34;-17006.94;;;35.43;35.09
8705;BME280;4389;41.932;25.904;2023-08-30T12:40:01;-17016.88;;;35.81;34.92
8705;BME280;4389;41.932;25.904;2023-08-30T12:42:28;-17021.56;;;35.99;35.01
8705;BME280;4389;41.932;25.904;2023-08-30T12:44:56;-17028.91;;;36.27;33.68
8705;BME280;4389;41.932;25.904;2023-08-30T12:47:23;-17028.09;;;36.24;33.20
8705;BME280;4389;41.932;25.904;2023-08-30T12:49:50;-17028.91;;;36.27;33.37
8705;BME280;4389;41.932;25.904;2023-08-30T12:52:17;-17025.63;;;36.15;33.73
8705;BME280;4389;41.932;25.904;2023-08-30T12:54:44;-17027.31;;;36.21;33.53
8705;BME280;4389;41.932;25.904;2023-08-30T12:57:11;-17026.16;;;36.17;34.62
8705;BME280;4389;41.932;25.904;2023-08-30T12:59:37;-17025.75;;;36.15;34.10
8705;BME280;4389;41.932;25.904;2023-08-30T13:02:06;-17017.91;;;35.85;34.36
8705;BME280;4389;41.932;25.904;2023-08-30T13:04:33;-17009.41;;;35.53;34.89